Time;durP1;ratioP1;P1;durP2;ratioP2;P2;SDS_P1;SDS_P2;PMS_P1;PMS_P2;Temp;Humidity;BMP_temperature;BMP_pressure;BME280_temperature;BME280_humidity;BME280_pressure;Samples;Min_cycle;Max_cycle;Signal;HPM_P1;HPM_P2
2021/03/23 00:01:03;;;;;;;30.23;19.80;;;;;;;4.06;80.61;101287.59;2074332;28;20486;-64
2021/03/23 00:02:09;;;;;;;28.55;19.60;;;;;;;4.10;80.62;101283.34;2073629;28;20037;-64
2021/03/23 00:03:13;;;;;;;28.77;18.35;;;;;;;4.08;80.44;101283.34;2075847;28;20029;-64
2021/03/23 00:04:14;;;;;;;26.02;18.50;;;;;;;4.12;80.21;101284.25;2074940;28;20485;-64
2021/03/23 00:05:15;;;;;;;27.50;18.42;;;;;;;4.14;80.40;101290.31;2075469;28;20131;-64
2021/03/23 00:06:19;;;;;;;28.38;18.38;;;;;;;4.13;80.16;101289.41;2074996;28;20498;-64
2021/03/23 00:07:19;;;;;;;26.17;18.40;;;;;;;4.17;80.19;101291.19;2076715;28;20041;-64
2021/03/23 00:08:34;;;;;;;25.93;17.40;;;;;;;4.19;80.02;101283.47;2078798;28;20017;-63
2021/03/23 00:09:34;;;;;;;30.13;19.35;;;;;;;4.19;79.95;101293.78;2073609;28;20503;-63
2021/03/23 00:10:34;;;;;;;26.70;18.50;;;;;;;4.18;79.99;101289.47;2078864;28;20017;-66
2021/03/23 00:11:41;;;;;;;27.27;17.20;;;;;;;4.16;79.99;101288.63;2081885;28;20056;-66
2021/03/23 00:12:41;;;;;;;22.05;16.98;;;;;;;4.14;79.83;101291.16;2081628;28;20026;-66
2021/03/23 00:13:43;;;;;;;24.13;17.70;;;;;;;4.18;79.97;101289.47;2081566;28;20028;-66
2021/03/23 00:14:44;;;;;;;23.88;16.48;;;;;;;4.18;79.88;101287.78;2075203;28;20415;-65
2021/03/23 00:15:44;;;;;;;23.00;17.07;;;;;;;4.17;79.82;101296.38;2074966;28;20059;-64
2021/03/23 00:16:50;;;;;;;27.60;17.85;;;;;;;4.17;80.04;101288.63;2073576;28;20128;-67
2021/03/23 00:17:51;;;;;;;24.98;16.80;;;;;;;4.19;79.68;101291.22;2066808;28;20037;-64
2021/03/23 00:18:52;;;;;;;24.15;17.52;;;;;;;4.17;79.89;101292.91;2066098;28;20117;-64
2021/03/23 00:19:52;;;;;;;25.90;17.73;;;;;;;4.19;79.94;101293.78;2066501;28;20038;-64
2021/03/23 00:20:52;;;;;;;24.53;16.53;;;;;;;4.17;79.72;101292.91;2076314;28;20029;-64
2021/03/23 00:21:53;;;;;;;23.97;17.20;;;;;;;4.16;79.88;101304.09;2075174;28;21624;-64
2021/03/23 00:22:53;;;;;;;28.08;17.40;;;;;;;4.17;79.96;101300.63;2074942;28;20036;-64
2021/03/23 00:23:55;;;;;;;26.47;16.73;;;;;;;4.18;79.87;101292.06;2074845;28;20088;-64
2021/03/23 00:24:55;;;;;;;25.08;18.05;;;;;;;4.19;79.74;101296.38;2076598;28;20024;-64
2021/03/23 00:25:56;;;;;;;27.93;17.80;;;;;;;4.20;79.90;101300.69;2075188;28;20455;-64
2021/03/23 00:26:57;;;;;;;24.45;18.05;;;;;;;4.18;79.82;101295.53;2075951;28;20185;-64
2021/03/23 00:27:57;;;;;;;23.80;17.70;;;;;;;4.18;79.71;101292.06;2080300;28;20033;-64
2021/03/23 00:28:58;;;;;;;26.23;17.23;;;;;;;4.13;79.63;101292.00;2081498;28;20025;-64
2021/03/23 00:29:58;;;;;;;25.83;16.87;;;;;;;4.15;79.92;101292.03;2078910;28;20490;-64
2021/03/23 00:30:58;;;;;;;25.90;17.03;;;;;;;4.17;79.92;101298.06;2075158;28;20335;-64
2021/03/23 00:31:59;;;;;;;26.13;17.57;;;;;;;4.15;79.82;101298.03;2076183;28;20025;-64
2021/03/23 00:32:59;;;;;;;24.10;16.57;;;;;;;4.13;79.81;101293.72;2076090;28;20030;-64
2021/03/23 00:34:03;;;;;;;23.03;16.07;;;;;;;4.14;80.14;101298.88;2075295;28;20048;-64
2021/03/23 00:35:06;;;;;;;28.08;17.38;;;;;;;4.14;79.99;101300.63;2075383;28;20293;-64
2021/03/23 00:36:07;;;;;;;26.70;17.77;;;;;;;4.13;80.43;101289.41;2073926;28;20028;-64
2021/03/23 00:37:07;;;;;;;24.88;17.30;;;;;;;4.12;80.17;101291.97;2075612;28;20033;-64
2021/03/23 00:38:09;;;;;;;26.20;18.07;;;;;;;4.10;80.02;101296.25;2075956;28;20040;-64
2021/03/23 00:39:10;;;;;;;27.45;17.52;;;;;;;4.10;80.20;101296.25;2080895;28;20037;-64
2021/03/23 00:40:16;;;;;;;27.23;17.58;;;;;;;4.15;80.19;101294.63;2075599;28;20025;-64
2021/03/23 00:41:16;;;;;;;26.95;18.50;;;;;;;4.15;79.87;101294.63;2080260;28;20032;-64
2021/03/23 00:42:17;;;;;;;23.27;17.37;;;;;;;4.15;79.88;101297.19;2080491;28;20051;-64
2021/03/23 00:43:17;;;;;;;23.70;17.42;;;;;;;4.17;79.79;101300.63;2077613;28;20025;-64
2021/03/23 00:44:17;;;;;;;25.57;17.40;;;;;;;4.14;79.83;101296.31;2075682;28;20120;-64
2021/03/23 00:45:18;;;;;;;26.10;18.03;;;;;;;4.15;79.81;101292.88;2066790;28;20672;-63
2021/03/23 00:46:19;;;;;;;26.35;17.45;;;;;;;4.17;80.13;101298.06;2066923;28;20086;-62
2021/03/23 00:47:19;;;;;;;23.85;17.25;;;;;;;4.17;80.12;101296.38;2075669;28;20551;-63
2021/03/23 00:48:20;;;;;;;27.23;18.50;;;;;;;4.17;80.22;101295.47;2079591;28;20390;-64
2021/03/23 00:49:20;;;;;;;23.40;17.53;;;;;;;4.18;79.94;101298.09;2079751;28;20624;-64
2021/03/23 00:50:20;;;;;;;26.67;17.50;;;;;;;4.17;79.91;101296.38;2080695;28;20029;-64
2021/03/23 00:51:21;;;;;;;25.37;18.17;;;;;;;4.20;80.05;101301.56;2071390;28;20525;-64
2021/03/23 00:52:21;;;;;;;27.07;18.00;;;;;;;4.19;79.93;101299.84;2071908;28;20045;-64
2021/03/23 00:53:21;;;;;;;30.73;17.87;;;;;;;4.20;79.86;101292.94;2080652;28;20053;-64
2021/03/23 00:54:22;;;;;;;26.93;18.20;;;;;;;4.21;79.92;101297.28;2078712;28;20025;-62
2021/03/23 00:55:23;;;;;;;29.20;18.60;;;;;;;4.20;79.86;101296.41;2080109;28;20160;-64
2021/03/23 00:56:23;;;;;;;24.35;17.48;;;;;;;4.20;79.81;101295.53;2079525;28;20553;-65
2021/03/23 00:57:23;;;;;;;24.47;17.07;;;;;;;4.19;79.29;101286.94;2079768;28;20116;-64
2021/03/23 00:58:24;;;;;;;25.57;17.47;;;;;;;4.18;79.64;101290.34;2080313;28;20536;-64
2021/03/23 00:59:24;;;;;;;25.33;17.80;;;;;;;4.20;79.72;101288.69;2080543;28;20104;-65
2021/03/23 01:00:25;;;;;;;22.87;16.07;;;;;;;4.20;79.59;101295.53;2080903;28;20021;-66
2021/03/23 01:01:26;;;;;;;26.10;17.42;;;;;;;4.18;79.44;101294.63;2080254;28;20017;-64
2021/03/23 01:02:27;;;;;;;27.00;18.13;;;;;;;4.19;79.71;101293.78;2078784;28;20072;-65
2021/03/23 01:03:27;;;;;;;;;;;;;;;4.15;79.79;101286.88;2081247;28;20031;-66
2021/03/23 01:04:28;;;;;;;24.92;17.38;;;;;;;4.15;80.02;101284.28;2079140;28;20381;-65
2021/03/23 01:05:31;;;;;;;24.43;16.70;;;;;;;4.17;79.80;101290.31;2077346;28;20079;-65
2021/03/23 01:06:31;;;;;;;25.92;17.67;;;;;;;4.14;79.85;101293.72;2081090;28;20030;-65
2021/03/23 01:07:32;;;;;;;24.10;16.70;;;;;;;4.14;80.12;101291.16;2077367;28;20044;-65
2021/03/23 01:08:32;;;;;;;27.47;17.33;;;;;;;4.18;80.07;101292.06;2068334;28;20018;-65
2021/03/23 01:09:32;;;;;;;22.87;16.80;;;;;;;4.19;80.15;101288.63;2071252;28;20036;-64
2021/03/23 01:10:33;;;;;;;28.93;17.40;;;;;;;4.16;80.09;101291.19;2075032;28;21802;-65
2021/03/23 01:11:34;;;;;;;25.58;18.02;;;;;;;4.18;79.83;101292.94;2078021;28;20116;-65
2021/03/23 01:12:34;;;;;;;24.05;17.65;;;;;;;4.18;79.73;101292.94;2076422;28;21177;-65
2021/03/23 01:13:35;;;;;;;23.27;17.00;;;;;;;4.18;79.71;101294.63;2075621;28;20478;-65
2021/03/23 01:14:39;;;;;;;24.53;17.37;;;;;;;4.18;79.98;101294.63;2078094;28;20493;-65
2021/03/23 01:15:39;;;;;;;23.60;16.83;;;;;;;4.18;79.76;101282.63;2077539;28;20025;-65
2021/03/23 01:16:40;;;;;;;27.70;17.67;;;;;;;4.17;79.67;101285.16;2081062;28;20025;-65
2021/03/23 01:17:41;;;;;;;24.87;17.30;;;;;;;4.15;79.79;101285.16;2076680;28;20028;-64
2021/03/23 01:18:41;;;;;;;25.52;17.48;;;;;;;4.11;79.55;101291.13;2079432;28;20088;-64
2021/03/23 01:19:41;;;;;;;23.60;17.23;;;;;;;4.12;79.82;101291.97;2081035;28;20029;-65
2021/03/23 01:20:41;;;;;;;24.83;17.57;;;;;;;4.12;79.74;101286.81;2072042;28;20506;-64
2021/03/23 01:21:42;;;;;;;22.10;16.87;;;;;;;4.15;79.93;101281.72;2071504;28;20022;-65
2021/03/23 01:22:42;;;;;;;23.47;17.53;;;;;;;4.16;79.65;101288.63;2073073;28;20378;-64
2021/03/23 01:23:43;;;;;;;24.97;16.77;;;;;;;4.14;79.99;101282.56;2071999;28;20445;-65
2021/03/23 01:24:43;;;;;;;26.93;17.50;;;;;;;4.11;79.74;101282.50;2080656;28;20036;-64
2021/03/23 01:25:43;;;;;;;26.57;18.03;;;;;;;4.11;79.97;101279.94;2081100;28;20105;-65
2021/03/23 01:26:44;;;;;;;22.53;16.90;;;;;;;4.13;80.02;101283.41;2081090;28;20524;-65
2021/03/23 01:27:48;;;;;;;28.70;18.03;;;;;;;4.14;79.72;101274.81;2080617;28;20033;-65
2021/03/23 01:28:48;;;;;;;24.48;17.45;;;;;;;4.16;79.70;101278.28;2079027;28;20096;-64
2021/03/23 01:29:48;;;;;;;25.50;17.30;;;;;;;4.14;79.78;101286.00;2077833;28;20634;-65
2021/03/23 01:30:49;;;;;;;24.63;17.37;;;;;;;4.15;80.04;101281.72;2080889;28;20052;-65
2021/03/23 01:31:49;;;;;;;24.63;16.70;;;;;;;4.14;80.04;101279.97;2080865;28;20456;-64
2021/03/23 01:32:50;;;;;;;26.97;17.63;;;;;;;4.15;79.82;101282.56;2075095;28;20116;-64
2021/03/23 01:33:50;;;;;;;26.35;17.15;;;;;;;4.12;80.06;101281.66;2081219;28;20032;-64
2021/03/23 01:34:51;;;;;;;24.87;16.97;;;;;;;4.13;80.49;101283.41;2078090;28;20064;-65
2021/03/23 01:35:52;;;;;;;22.97;17.73;;;;;;;4.13;80.58;101286.84;2079704;28;20029;-65
2021/03/23 01:36:52;;;;;;;24.90;17.25;;;;;;;4.10;80.81;101284.22;2080137;28;20036;-65
2021/03/23 01:37:53;;;;;;;25.20;17.50;;;;;;;4.11;80.74;101279.94;2080719;28;20420;-64
2021/03/23 01:38:54;;;;;;;24.40;18.00;;;;;;;4.10;80.60;101284.22;2081035;28;20027;-65
2021/03/23 01:39:54;;;;;;;25.33;17.67;;;;;;;4.07;80.97;101278.13;2080908;28;20432;-64
2021/03/23 01:40:54;;;;;;;24.77;17.57;;;;;;;4.08;80.96;101282.44;2079980;28;20024;-65
2021/03/23 01:41:55;;;;;;;22.77;17.27;;;;;;;4.08;81.10;101282.44;2080625;28;20032;-64
2021/03/23 01:43:01;;;;;;;24.20;18.17;;;;;;;4.05;81.28;101280.69;2080313;28;20025;-64
2021/03/23 01:44:02;;;;;;;27.88;18.48;;;;;;;4.03;81.28;101280.69;2081098;28;20083;-65
2021/03/23 01:45:33;;;;;;;27.05;17.92;;;;;;;4.01;81.46;101282.38;2081016;28;20031;-64
2021/03/23 01:46:41;;;;;;;24.02;16.80;;;;;;;4.01;81.15;101290.13;2080782;28;20458;-65
2021/03/23 01:47:42;;;;;;;27.77;17.63;;;;;;;4.00;81.36;101290.97;2080933;28;20478;-64
2021/03/23 01:48:42;;;;;;;26.40;17.23;;;;;;;3.98;81.28;101289.22;2080182;28;20105;-65
2021/03/23 01:49:46;;;;;;;24.63;17.33;;;;;;;3.98;81.65;101284.91;2073835;28;20034;-65
2021/03/23 01:50:49;;;;;;;23.83;17.10;;;;;;;4.00;81.53;101288.38;2080556;28;20068;-65
2021/03/23 01:51:53;;;;;;;24.85;17.08;;;;;;;3.99;81.61;101284.06;2080643;28;20056;-65
2021/03/23 01:53:10;;;;;;;29.10;17.60;;;;;;;3.98;81.77;101284.06;2080703;28;20033;-65
2021/03/23 01:54:17;;;;;;;24.83;17.40;;;;;;;3.99;81.79;101288.38;2080671;28;20025;-65
2021/03/23 01:55:18;;;;;;;26.23;16.58;;;;;;;3.97;81.84;101288.31;2080696;28;20494;-65
2021/03/23 01:56:18;;;;;;;28.10;18.20;;;;;;;3.99;81.96;101284.06;2080829;28;20017;-65
2021/03/23 01:57:18;;;;;;;27.03;17.30;;;;;;;3.98;81.84;101282.31;2080409;28;20069;-65
2021/03/23 01:58:20;;;;;;;26.30;17.10;;;;;;;3.96;81.97;101281.47;2080927;28;20022;-65
2021/03/23 01:59:22;;;;;;;25.30;17.48;;;;;;;3.96;82.14;101280.56;2080859;28;20348;-65
2021/03/23 02:00:23;;;;;;;25.05;17.40;;;;;;;3.94;82.27;101282.25;2080976;28;20052;-64
2021/03/23 02:01:23;;;;;;;24.27;17.48;;;;;;;3.90;82.35;101281.34;2080127;28;20025;-65
2021/03/23 02:02:28;;;;;;;23.53;18.03;;;;;;;3.87;82.38;101278.75;2080912;28;20031;-65
2021/03/23 02:03:28;;;;;;;23.13;16.83;;;;;;;3.85;82.42;101283.00;2080675;28;20117;-65
2021/03/23 02:04:29;;;;;;;28.13;18.03;;;;;;;3.82;82.43;101278.66;2081014;28;20075;-65
2021/03/23 02:05:31;;;;;;;27.33;17.80;;;;;;;3.81;82.71;101276.06;2080861;28;20095;-65
2021/03/23 02:06:48;;;;;;;26.75;18.27;;;;;;;3.80;82.74;101274.31;2072078;28;20470;-64
2021/03/23 02:07:48;;;;;;;24.13;17.60;;;;;;;3.78;83.11;101278.56;2073778;28;20438;-65
2021/03/23 02:08:49;;;;;;;26.75;18.10;;;;;;;3.78;82.80;101284.63;2080649;28;20026;-65
2021/03/23 02:09:55;;;;;;;27.50;18.40;;;;;;;3.78;83.14;101283.75;2080764;28;20036;-64
2021/03/23 02:10:58;;;;;;;28.75;18.08;;;;;;;3.77;83.10;101282.88;2071357;28;20022;-65
2021/03/23 02:12:03;;;;;;;24.38;17.17;;;;;;;3.77;83.31;101279.44;2072304;28;20045;-65
2021/03/23 02:13:07;;;;;;;27.77;18.00;;;;;;;3.74;83.20;101278.56;2080539;28;20034;-64
2021/03/23 02:14:08;;;;;;;24.58;18.30;;;;;;;3.73;83.36;101279.41;2080567;28;20037;-65
2021/03/23 02:15:10;;;;;;;28.33;17.83;;;;;;;3.72;83.23;101280.25;2080161;28;20025;-64
2021/03/23 02:16:10;;;;;;;;;;;;;;;3.71;83.21;101275.91;2072340;28;20033;-65
2021/03/23 02:17:23;;;;;;;25.60;17.27;;;;;;;3.72;83.16;101267.34;2080156;28;19909;-64
2021/03/23 02:18:26;;;;;;;27.15;18.15;;;;;;;3.71;83.24;101275.91;2080733;28;20029;-64
2021/03/23 02:19:27;;;;;;;25.17;17.35;;;;;;;3.72;83.36;101281.97;2080681;28;20024;-64
2021/03/23 02:20:27;;;;;;;25.77;17.95;;;;;;;3.74;83.36;101281.13;2080112;28;20025;-65
2021/03/23 02:21:27;;;;;;;27.87;18.90;;;;;;;3.72;83.29;101276.81;2080313;28;20033;-65
2021/03/23 02:22:34;;;;;;;28.63;18.47;;;;;;;3.70;83.58;101278.50;2080539;28;20195;-65
2021/03/23 02:23:38;;;;;;;25.77;17.77;;;;;;;3.69;84.24;101266.44;2080678;28;20029;-64
2021/03/23 02:24:39;;;;;;;24.58;18.25;;;;;;;3.72;83.92;101280.25;2080453;28;20025;-64
2021/03/23 02:25:39;;;;;;;22.30;17.07;;;;;;;3.72;83.91;101272.50;2080708;28;20057;-65
2021/03/23 02:26:40;;;;;;;24.27;16.60;;;;;;;3.76;84.02;101282.88;2079733;28;20500;-64
2021/03/23 02:27:41;;;;;;;23.83;17.80;;;;;;;3.71;83.82;101272.50;2079978;28;20075;-65
2021/03/23 02:28:51;;;;;;;26.50;17.08;;;;;;;3.73;83.89;101273.34;2079611;28;20036;-65
2021/03/23 02:29:55;;;;;;;26.55;17.50;;;;;;;3.73;84.09;101274.25;2079845;28;20413;-65
2021/03/23 02:30:56;;;;;;;24.40;16.80;;;;;;;3.72;84.19;101275.09;2080036;28;20033;-65
2021/03/23 02:31:56;;;;;;;25.43;18.10;;;;;;;3.71;84.18;101281.06;2078990;28;20021;-64
2021/03/23 02:32:57;;;;;;;25.85;17.30;;;;;;;3.72;84.33;101280.25;2063391;28;20105;-64
2021/03/23 02:33:58;;;;;;;28.60;17.73;;;;;;;3.73;84.10;101276.81;2063782;28;20062;-64
2021/03/23 02:34:59;;;;;;;25.70;17.42;;;;;;;3.70;84.13;101269.03;2075529;28;20068;-64
2021/03/23 02:35:59;;;;;;;28.27;17.27;;;;;;;3.70;84.45;101276.75;2080671;28;20021;-64
2021/03/23 02:36:59;;;;;;;23.53;17.47;;;;;;;3.69;84.24;101277.59;2080217;28;20013;-64
2021/03/23 02:38:00;;;;;;;27.20;17.53;;;;;;;3.69;84.39;101271.59;2080323;28;20683;-64
2021/03/23 02:39:01;;;;;;;25.88;17.45;;;;;;;3.70;84.32;101275.91;2071360;28;20040;-64
2021/03/23 02:40:01;;;;;;;27.23;18.10;;;;;;;3.69;84.31;101277.59;2071654;28;20030;-64
2021/03/23 02:41:01;;;;;;;27.60;17.10;;;;;;;3.70;84.36;101273.34;2080101;28;20542;-64
2021/03/23 02:42:03;;;;;;;23.10;17.20;;;;;;;3.70;84.57;101281.91;2080727;28;20386;-64
2021/03/23 02:43:03;;;;;;;26.70;18.35;;;;;;;3.69;84.35;101282.75;2079883;28;20111;-64
2021/03/23 02:44:05;;;;;;;24.17;17.47;;;;;;;3.66;84.43;101272.41;2080712;28;20478;-64
2021/03/23 02:45:06;;;;;;;24.85;17.90;;;;;;;3.67;84.60;101281.91;2080464;28;20027;-65
2021/03/23 02:46:07;;;;;;;29.15;19.10;;;;;;;3.67;84.64;101279.31;2080719;28;20021;-64
2021/03/23 02:47:09;;;;;;;24.37;18.20;;;;;;;3.67;84.86;101273.28;2080425;28;20095;-64
2021/03/23 02:48:09;;;;;;;26.08;17.95;;;;;;;3.68;84.66;101277.59;2080553;28;20303;-64
2021/03/23 02:49:09;;;;;;;27.17;18.73;;;;;;;3.69;84.06;101275.03;2080473;28;20021;-64
2021/03/23 02:50:10;;;;;;;27.90;17.90;;;;;;;3.70;84.46;101274.19;2080195;28;20482;-65
2021/03/23 02:51:15;;;;;;;27.33;17.60;;;;;;;3.68;84.62;101275.88;2074263;28;20053;-65
2021/03/23 02:52:18;;;;;;;24.20;18.17;;;;;;;3.68;84.71;101270.72;2074542;28;20409;-65
2021/03/23 02:53:20;;;;;;;27.40;18.33;;;;;;;3.68;85.05;101275.00;2078749;28;20044;-65
2021/03/23 02:54:21;;;;;;;25.10;17.73;;;;;;;3.68;84.86;101269.84;2067954;28;20375;-65
2021/03/23 02:55:21;;;;;;;25.52;17.88;;;;;;;3.65;84.94;101265.53;2066588;28;20060;-65
2021/03/23 02:56:21;;;;;;;23.87;17.07;;;;;;;3.67;84.92;101276.75;2073295;28;20057;-64
2021/03/23 02:57:22;;;;;;;23.13;17.30;;;;;;;3.66;84.80;101275.00;2072053;28;20033;-65
2021/03/23 02:58:23;;;;;;;28.07;17.67;;;;;;;3.66;84.87;101267.25;2072822;28;20030;-64
2021/03/23 02:59:23;;;;;;;25.88;18.85;;;;;;;3.66;84.86;101267.25;2078027;28;20691;-65
2021/03/23 03:00:23;;;;;;;25.40;17.73;;;;;;;3.65;84.70;101265.53;2077646;28;20041;-65
2021/03/23 03:01:24;;;;;;;25.13;17.17;;;;;;;3.67;84.58;101274.16;2074312;28;20018;-65
2021/03/23 03:02:24;;;;;;;25.83;18.47;;;;;;;3.68;84.69;101268.13;2080566;28;20108;-65
2021/03/23 03:03:25;;;;;;;25.70;17.63;;;;;;;3.67;84.76;101271.59;2080798;28;20037;-65
2021/03/23 03:04:25;;;;;;;24.80;17.73;;;;;;;3.67;84.67;101263.84;2080682;28;20034;-65
2021/03/23 03:05:25;;;;;;;24.63;17.37;;;;;;;3.67;84.43;101270.69;2080852;28;20405;-64
2021/03/23 03:06:26;;;;;;;23.73;17.70;;;;;;;3.68;84.32;101270.72;2080578;28;20108;-64
2021/03/23 03:07:26;;;;;;;24.13;17.60;;;;;;;3.68;84.20;101262.13;2080711;28;20065;-64
2021/03/23 03:08:27;;;;;;;22.70;17.07;;;;;;;3.69;84.08;101267.28;2080653;28;20060;-64
2021/03/23 03:09:27;;;;;;;28.20;18.13;;;;;;;3.68;84.11;101270.72;2080564;28;20139;-64
2021/03/23 03:10:27;;;;;;;24.30;17.63;;;;;;;3.67;84.00;101271.59;2080539;28;20056;-64
2021/03/23 03:11:28;;;;;;;26.87;17.60;;;;;;;3.67;83.84;101268.13;2079607;28;20100;-65
2021/03/23 03:12:28;;;;;;;24.17;17.57;;;;;;;3.67;83.85;101269.00;2072762;28;20470;-65
2021/03/23 03:13:29;;;;;;;26.37;18.33;;;;;;;3.67;83.68;101265.53;2076344;28;20026;-65
2021/03/23 03:14:29;;;;;;;25.63;17.48;;;;;;;3.65;83.60;101262.06;2080553;28;20025;-65
2021/03/23 03:15:30;;;;;;;24.17;17.43;;;;;;;3.63;83.76;101266.31;2080307;28;20104;-64
2021/03/23 03:16:30;;;;;;;23.00;17.90;;;;;;;3.62;83.94;101267.19;2079858;28;20025;-64
2021/03/23 03:17:31;;;;;;;27.77;17.23;;;;;;;3.61;84.24;101263.72;2080022;28;20061;-65
2021/03/23 03:18:31;;;;;;;25.27;17.90;;;;;;;3.62;83.88;101267.19;2077232;28;20116;-65
2021/03/23 03:19:32;;;;;;;22.77;16.63;;;;;;;3.61;83.98;101268.88;2076174;28;20045;-64
2021/03/23 03:20:32;;;;;;;28.30;18.17;;;;;;;3.59;84.09;101268.00;2071222;28;20057;-64
2021/03/23 03:21:32;;;;;;;24.93;17.50;;;;;;;3.60;84.28;101266.28;2069831;28;20057;-65
2021/03/23 03:22:33;;;;;;;26.33;17.57;;;;;;;3.58;84.31;101269.72;2077114;28;20029;-64
2021/03/23 03:23:34;;;;;;;25.67;17.27;;;;;;;3.60;84.27;101267.16;2072366;28;20038;-64
2021/03/23 03:24:34;;;;;;;22.80;17.30;;;;;;;3.61;84.36;101268.03;2078117;28;20053;-64
2021/03/23 03:25:34;;;;;;;24.63;17.77;;;;;;;3.60;84.11;101268.88;2075902;28;20040;-64
2021/03/23 03:26:35;;;;;;;25.07;17.67;;;;;;;3.58;84.37;101263.66;2074909;28;20083;-65
2021/03/23 03:27:35;;;;;;;26.97;18.07;;;;;;;3.57;84.51;101270.56;2079392;28;20025;-64
2021/03/23 03:28:36;;;;;;;25.37;17.30;;;;;;;3.56;84.56;101262.81;2079230;28;20519;-65
2021/03/23 03:29:36;;;;;;;26.05;17.80;;;;;;;3.56;84.33;101271.38;2077900;28;20025;-64
2021/03/23 03:30:39;;;;;;;25.73;17.77;;;;;;;3.58;84.19;101273.97;2080234;28;20035;-64
2021/03/23 03:31:39;;;;;;;23.33;17.52;;;;;;;3.59;83.95;101270.56;2080002;28;20108;-65
2021/03/23 03:32:39;;;;;;;28.43;18.50;;;;;;;3.58;83.63;101268.81;2080490;28;20108;-64
2021/03/23 03:33:40;;;;;;;28.43;17.97;;;;;;;3.58;83.75;101268.81;2080462;28;20095;-64
2021/03/23 03:34:40;;;;;;;25.57;17.83;;;;;;;3.58;83.95;101274.88;2080161;28;20033;-64
2021/03/23 03:35:42;;;;;;;24.13;17.40;;;;;;;3.57;83.88;101262.81;2076995;28;20030;-64
2021/03/23 03:36:42;;;;;;;26.13;17.70;;;;;;;3.56;83.81;101265.38;2076903;28;20025;-64
2021/03/23 03:37:43;;;;;;;29.13;18.47;;;;;;;3.58;83.85;101269.72;2081605;28;20028;-64
2021/03/23 03:38:43;;;;;;;27.45;17.88;;;;;;;3.59;83.60;101268.00;2082006;28;20028;-64
2021/03/23 03:39:44;;;;;;;26.63;17.83;;;;;;;3.58;83.62;101268.81;2081388;28;20033;-65
2021/03/23 03:40:48;;;;;;;28.87;17.90;;;;;;;3.58;83.77;101272.28;2081733;28;20449;-65
2021/03/23 03:41:48;;;;;;;27.25;18.33;;;;;;;3.58;83.54;101271.41;2081578;28;20275;-64
2021/03/23 03:42:49;;;;;;;26.00;18.03;;;;;;;3.58;83.68;101271.41;2081101;28;20045;-65
2021/03/23 03:43:50;;;;;;;27.00;17.88;;;;;;;3.58;83.63;101268.81;2080471;28;20025;-59
2021/03/23 03:44:50;;;;;;;26.05;17.98;;;;;;;3.61;83.57;101268.03;2070426;28;20044;-59
2021/03/23 03:45:51;;;;;;;24.10;17.97;;;;;;;3.60;83.52;101267.16;2068296;28;20034;-59
2021/03/23 03:46:51;;;;;;;27.23;17.45;;;;;;;3.60;83.44;101266.28;2081512;28;20029;-59
2021/03/23 03:47:53;;;;;;;25.70;17.90;;;;;;;3.59;83.68;101270.56;2081385;28;20533;-59
2021/03/23 03:48:54;;;;;;;24.45;17.80;;;;;;;3.61;83.43;101266.31;2081050;28;20551;-59
2021/03/23 03:49:54;;;;;;;26.87;17.23;;;;;;;3.61;83.28;101268.88;2075196;28;20022;-59
2021/03/23 03:50:55;;;;;;;25.67;17.40;;;;;;;3.60;83.39;101277.47;2081335;28;20493;-59
2021/03/23 03:51:56;;;;;;;24.30;17.35;;;;;;;3.62;83.21;101270.63;2081710;28;20025;-59
2021/03/23 03:52:57;;;;;;;24.75;18.02;;;;;;;3.61;83.16;101271.47;2081954;28;20023;-60
2021/03/23 03:53:57;;;;;;;25.48;17.50;;;;;;;3.61;83.17;101271.47;2081019;28;20045;-60
2021/03/23 03:54:57;;;;;;;25.50;17.60;;;;;;;3.62;83.21;101265.47;2079787;28;20029;-59
2021/03/23 03:55:58;;;;;;;23.10;16.00;;;;;;;3.62;83.19;101267.19;2080984;28;20068;-60
2021/03/23 03:56:58;;;;;;;23.07;16.47;;;;;;;3.63;83.46;101269.78;2079664;28;20390;-59
2021/03/23 03:57:59;;;;;;;30.50;17.97;;;;;;;3.65;83.36;101272.38;2071586;28;20022;-59
2021/03/23 03:58:59;;;;;;;26.15;16.80;;;;;;;3.62;83.32;101270.63;2072763;28;20029;-59
2021/03/23 03:59:59;;;;;;;22.93;16.50;;;;;;;3.60;83.54;101267.16;2080847;28;20033;-59
2021/03/23 04:00:59;;;;;;;24.40;18.30;;;;;;;3.61;83.74;101263.72;2080931;28;20429;-60
2021/03/23 04:02:00;;;;;;;27.73;18.47;;;;;;;3.60;83.89;101269.72;2079466;28;20041;-59
2021/03/23 04:03:02;;;;;;;24.27;16.97;;;;;;;3.58;83.83;101259.41;2081731;28;20446;-59
2021/03/23 04:04:02;;;;;;;25.65;18.02;;;;;;;3.58;84.00;101269.72;2081853;28;20056;-60
2021/03/23 04:05:04;;;;;;;27.93;17.53;;;;;;;3.57;84.04;101272.28;2081782;28;20033;-60
2021/03/23 04:06:05;;;;;;;28.13;17.52;;;;;;;3.54;84.04;101275.66;2081494;28;20025;-59
2021/03/23 04:07:05;;;;;;;28.03;17.97;;;;;;;3.55;84.32;101273.97;2081852;28;20524;-59
2021/03/23 04:08:08;;;;;;;25.20;16.90;;;;;;;3.54;84.28;101267.06;2081663;28;20025;-59
2021/03/23 04:09:09;;;;;;;25.08;17.15;;;;;;;3.53;84.29;101273.06;2081130;28;20053;-60
2021/03/23 04:10:09;;;;;;;26.07;17.73;;;;;;;3.53;84.42;101273.06;2070880;28;20031;-59
2021/03/23 04:11:11;;;;;;;23.93;17.93;;;;;;;3.52;84.41;101274.78;2073412;28;20021;-59
2021/03/23 04:12:12;;;;;;;29.35;18.30;;;;;;;3.51;84.47;101272.16;2081221;28;20033;-59
2021/03/23 04:13:12;;;;;;;27.52;18.02;;;;;;;3.48;84.34;101272.13;2081705;28;20113;-60
2021/03/23 04:14:13;;;;;;;24.40;17.88;;;;;;;3.49;84.66;101269.56;2081691;28;20111;-60
2021/03/23 04:15:21;;;;;;;26.90;18.00;;;;;;;3.48;84.51;101274.72;2081688;28;20030;-59
2021/03/23 04:16:21;;;;;;;23.23;16.35;;;;;;;3.50;84.30;101267.84;2081680;28;20068;-59
2021/03/23 04:17:21;;;;;;;24.93;17.67;;;;;;;3.49;84.47;101263.53;2081533;28;20021;-59
2021/03/23 04:18:25;;;;;;;22.67;16.60;;;;;;;3.48;84.32;101267.81;2081754;28;20032;-59
2021/03/23 04:19:26;;;;;;;28.42;17.92;;;;;;;3.49;84.43;101263.53;2081580;28;20032;-59
2021/03/23 04:20:28;;;;;;;23.98;17.48;;;;;;;3.49;84.42;101263.53;2076163;28;20103;-59
2021/03/23 04:21:28;;;;;;;25.42;17.42;;;;;;;3.49;84.55;101266.09;2074767;28;20505;-60
2021/03/23 04:22:28;;;;;;;24.77;17.43;;;;;;;3.48;84.23;101266.97;2081854;28;20033;-60
2021/03/23 04:23:39;;;;;;;26.37;17.30;;;;;;;3.49;84.23;101263.53;2081499;28;20367;-60
2021/03/23 04:24:39;;;;;;;28.50;17.33;;;;;;;3.48;84.47;101265.25;2081687;28;20057;-60
2021/03/23 04:25:39;;;;;;;25.40;16.50;;;;;;;3.48;84.34;101266.97;2081296;28;20021;-60
2021/03/23 04:26:40;;;;;;;23.33;16.47;;;;;;;3.47;84.38;101266.09;2081658;28;20500;-59
2021/03/23 04:27:40;;;;;;;25.87;16.60;;;;;;;3.46;84.42;101269.50;2081318;28;20123;-60
2021/03/23 04:28:41;;;;;;;24.63;17.00;;;;;;;3.46;84.47;101269.50;2081718;28;20036;-59
2021/03/23 04:29:41;;;;;;;25.60;17.27;;;;;;;3.46;84.43;101266.06;2072795;28;20029;-60
2021/03/23 04:30:41;;;;;;;25.03;16.37;;;;;;;3.47;84.18;101268.66;2071078;28;20101;-59
2021/03/23 04:31:44;;;;;;;26.30;16.90;;;;;;;3.48;83.87;101270.41;2072933;28;20020;-60
2021/03/23 04:32:45;;;;;;;26.02;16.92;;;;;;;3.46;83.79;101274.66;2073575;28;20017;-59
2021/03/23 04:33:45;;;;;;;27.95;16.95;;;;;;;3.48;83.74;101269.56;2078690;28;20053;-60
2021/03/23 04:34:46;;;;;;;24.13;17.00;;;;;;;3.47;84.14;101272.97;2081100;28;20037;-59
2021/03/23 04:35:49;;;;;;;24.20;15.63;;;;;;;3.47;84.14;101270.38;2081577;28;20021;-59
2021/03/23 04:36:49;;;;;;;26.50;17.70;;;;;;;3.48;84.06;101266.97;2081556;28;20639;-59
2021/03/23 04:37:49;;;;;;;22.13;16.67;;;;;;;3.46;84.18;101264.34;2081490;28;20028;-60
2021/03/23 04:38:50;;;;;;;25.20;17.30;;;;;;;3.47;83.89;101276.41;2075702;28;20036;-59
2021/03/23 04:39:50;;;;;;;25.27;16.13;;;;;;;3.48;83.90;101272.97;2072768;28;20028;-59
2021/03/23 04:40:51;;;;;;;23.98;16.40;;;;;;;3.51;83.52;101272.16;2072796;28;20028;-59
2021/03/23 04:41:51;;;;;;;24.10;16.23;;;;;;;3.50;83.44;101273.00;2073064;28;20359;-59
2021/03/23 04:42:51;;;;;;;25.93;17.20;;;;;;;3.50;82.76;101270.41;2073488;28;20387;-60